Time;durP1;ratioP1;P1;durP2;ratioP2;P2;SDS_P1;SDS_P2;PMS_P1;PMS_P2;Temp;Humidity;BMP_temperature;BMP_pressure;BME280_temperature;BME280_humidity;BME280_pressure;Samples;Min_cycle;Max_cycle;Signal;HPM_P1;HPM_P2
2021/06/15 00:01:18;;;;;;;;;8.00;7.25;;;;;23.57;45.37;101559.31;4967960;28;45632;-74
2021/06/15 00:03:44;;;;;;;;;8.50;7.00;;;;;23.55;45.83;101561.41;4965924;28;49200;-74
2021/06/15 00:06:09;;;;;;;;;8.25;6.25;;;;;23.55;45.59;101556.81;4967855;28;45528;-74
2021/06/15 00:08:35;;;;;;;;;6.75;6.50;;;;;23.53;45.30;101556.22;4966870;28;45718;-74
2021/06/15 00:11:01;;;;;;;;;10.50;8.00;;;;;23.53;45.07;101553.50;4969576;28;45570;-74
2021/06/15 00:13:26;;;;;;;;;8.25;7.75;;;;;23.52;45.14;101551.88;4965672;28;46602;-74
2021/06/15 00:15:52;;;;;;;;;8.25;8.00;;;;;23.51;45.32;101554.78;4968875;28;47102;-74
2021/06/15 00:18:19;;;;;;;;;7.25;6.00;;;;;23.51;45.22;101552.06;4966888;28;45590;-74
2021/06/15 00:20:46;;;;;;;;;9.75;6.50;;;;;23.49;46.05;101544.22;4966583;28;45473;-74
2021/06/15 00:23:12;;;;;;;;;7.00;7.00;;;;;23.47;44.91;101548.16;4970573;28;45531;-74
2021/06/15 00:25:38;;;;;;;;;7.50;7.00;;;;;23.43;45.43;101538.84;4966343;28;45534;-74
2021/06/15 00:28:05;;;;;;;;;9.25;8.00;;;;;23.42;45.32;101547.97;4966438;28;45657;-74
2021/06/15 00:30:31;;;;;;;;;7.75;7.00;;;;;23.38;45.28;101551.09;4968002;28;45523;-73
2021/06/15 00:32:57;;;;;;;;;6.25;6.25;;;;;23.33;45.46;101545.53;4968393;28;45519;-74
2021/06/15 00:35:23;;;;;;;;;8.00;7.00;;;;;23.28;45.88;101545.34;4968432;28;45494;-74
2021/06/15 00:37:50;;;;;;;;;8.00;7.00;;;;;23.24;46.02;101541.41;4968550;28;45770;-73
2021/06/15 00:40:16;;;;;;;;;6.50;6.50;;;;;23.20;46.27;101553.69;4963552;28;45432;-73
2021/06/15 00:42:42;;;;;;;;;6.50;6.50;;;;;23.16;46.24;101558.66;4965514;28;45607;-73
2021/06/15 00:45:09;;;;;;;;;8.00;8.00;;;;;23.12;46.57;101559.28;4967010;28;45858;-74
2021/06/15 00:47:36;;;;;;;;;7.50;6.75;;;;;23.09;46.48;101555.16;4968127;28;45913;-73
2021/06/15 00:50:01;;;;;;;;;5.75;5.75;;;;;23.05;47.17;101553.13;4968904;28;45460;-74
2021/06/15 00:52:27;;;;;;;;;8.25;7.00;;;;;23.01;46.76;101562.66;4964263;28;45614;-73
2021/06/15 00:54:57;;;;;;;;;8.00;7.25;;;;;22.96;47.41;101557.88;4979412;28;45646;-73
2021/06/15 00:57:26;;;;;;;;;8.25;8.00;;;;;22.92;47.36;101551.22;4967648;28;45551;-74
2021/06/15 00:59:54;;;;;;;;;10.75;7.25;;;;;22.87;47.61;101551.03;4963071;28;45379;-74
2021/06/15 01:02:21;;;;;;;;;8.50;8.00;;;;;22.84;47.45;101546.06;4969093;28;46455;-73
2021/06/15 01:04:47;;;;;;;;;9.50;9.00;;;;;22.81;47.83;101560.78;4966160;28;45487;-74
2021/06/15 01:08:09;;;;;;;;;7.00;7.00;;;;;22.75;47.56;101551.69;4964262;28;45471;-73
2021/06/15 01:10:35;;;;;;;;;4.75;4.75;;;;;22.72;48.08;101557.50;4969900;28;45564;-73
2021/06/15 01:13:30;;;;;;;;;7.00;7.00;;;;;22.68;48.36;101556.28;4970046;28;46594;-73
2021/06/15 01:16:34;;;;;;;;;8.00;8.00;;;;;22.65;48.30;101564.78;4967134;28;45850;-74
2021/06/15 01:19:28;;;;;;;;;6.50;6.25;;;;;22.63;48.06;101568.72;4964238;28;46675;-73
2021/06/15 01:22:08;;;;;;;;;7.75;6.50;;;;;22.61;48.38;101568.09;4897271;28;45782;-73
2021/06/15 01:24:52;;;;;;;;;6.75;6.75;;;;;22.59;47.71;101565.59;4886969;28;46480;-73
2021/06/15 01:27:57;;;;;;;;;9.00;8.00;;;;;22.56;48.09;101566.03;4896079;28;45600;-74
2021/06/15 01:30:26;;;;;;;;;6.00;6.00;;;;;22.49;48.60;101563.31;4892649;28;45671;-74
2021/06/15 01:32:57;;;;;;;;;8.50;7.75;;;;;22.47;48.06;101561.88;4896601;28;45432;-73
2021/06/15 01:35:28;;;;;;;;;8.00;7.00;;;;;22.43;48.09;101553.41;4893219;28;46076;-74
2021/06/15 01:38:07;;;;;;;;;6.50;6.50;;;;;22.41;48.14;101554.66;4899488;28;46215;-73
2021/06/15 01:40:50;;;;;;;;;8.50;7.00;;;;;22.38;47.98;101550.50;4894094;28;45824;-74
2021/06/15 01:43:23;;;;;;;;;10.50;7.00;;;;;;;;4892972;28;45782;-74
2021/06/15 01:45:53;;;;;;;;;6.00;6.00;;;;;22.36;48.80;101546.38;4887847;28;45564;-74
2021/06/15 01:48:28;;;;;;;;;7.00;7.00;;;;;22.35;48.74;101550.06;4871300;28;46792;-74
2021/06/15 01:50:55;;;;;;;;;8.25;6.00;;;;;22.33;49.12;101543.03;4893601;28;45865;-74
2021/06/15 01:53:22;;;;;;;;;7.00;7.00;;;;;22.30;48.66;101539.91;4889522;28;45715;-74
2021/06/15 01:55:53;;;;;;;;;8.00;7.25;;;;;22.28;48.31;101542.03;4889137;28;46546;-73
2021/06/15 01:58:22;;;;;;;;;8.75;7.50;;;;;22.24;48.62;101546.97;4911700;28;45433;-74
2021/06/15 02:00:49;;;;;;;;;6.50;6.00;;;;;22.20;48.43;101548.41;4963071;28;45488;-74
2021/06/15 02:03:15;;;;;;;;;9.00;8.50;;;;;22.19;48.71;101552.13;4963324;28;46110;-73
2021/06/15 02:05:53;;;;;;;;;6.75;6.75;;;;;22.18;49.21;101550.47;4964151;28;45470;-74
2021/06/15 02:08:27;;;;;;;;;10.75;9.00;;;;;22.15;49.29;101544.66;4969792;28;45490;-73
2021/06/15 02:10:53;;;;;;;;;12.50;9.75;;;;;22.11;48.65;101547.78;4965970;28;45524;-73
2021/06/15 02:13:20;;;;;;;;;8.00;7.50;;;;;22.07;49.08;101553.75;4965079;28;45485;-74
2021/06/15 02:15:47;;;;;;;;;8.50;8.50;;;;;22.08;49.01;101553.56;4965696;28;46639;-74
2021/06/15 02:18:20;;;;;;;;;8.25;8.25;;;;;22.07;48.72;101556.47;4964165;28;45628;-73
2021/06/15 02:20:46;;;;;;;;;7.50;6.50;;;;;22.06;48.49;101557.50;4979338;28;45594;-74
2021/06/15 02:23:17;;;;;;;;;9.25;7.50;;;;;22.02;48.34;101557.06;4967779;28;45949;-73
2021/06/15 02:25:42;;;;;;;;;8.25;6.00;;;;;22.02;48.87;101550.88;4962440;28;47241;-74
2021/06/15 02:28:08;;;;;;;;;7.00;6.00;;;;;22.01;48.67;101550.03;4961906;28;45471;-73
2021/06/15 02:30:34;;;;;;;;;6.50;6.50;;;;;21.99;48.65;101560.19;4966784;28;45419;-74
2021/06/15 02:33:23;;;;;;;;;6.25;6.25;;;;;21.96;48.91;101552.53;4963860;28;45537;-74
2021/06/15 02:35:51;;;;;;;;;8.25;7.00;;;;;21.95;48.71;101558.91;4961690;28;45476;-73
2021/06/15 02:38:25;;;;;;;;;7.00;7.00;;;;;21.93;48.96;101552.91;4965277;28;45547;-74
2021/06/15 02:40:54;;;;;;;;;6.00;6.00;;;;;21.93;48.93;101552.09;4966660;28;45594;-74
2021/06/15 02:43:24;;;;;;;;;7.50;7.00;;;;;21.90;49.08;101553.31;4962583;28;45512;-73
2021/06/15 02:45:53;;;;;;;;;9.75;8.00;;;;;21.90;49.02;101556.84;4961393;28;47456;-73
2021/06/15 02:48:22;;;;;;;;;9.50;7.00;;;;;21.86;49.12;101550.22;4962940;28;45571;-74
2021/06/15 02:50:48;;;;;;;;;7.00;6.00;;;;;21.85;49.84;101556.63;4966231;28;45540;-73
2021/06/15 02:53:26;;;;;;;;;7.75;7.75;;;;;21.80;49.25;101558.28;4969023;28;45521;-73
2021/06/15 02:55:58;;;;;;;;;10.00;9.00;;;;;21.78;49.57;101560.34;4965137;28;46540;-74
2021/06/15 02:58:26;;;;;;;;;8.25;7.00;;;;;21.74;49.52;101548.34;4963714;28;45576;-74
2021/06/15 03:00:51;;;;;;;;;7.25;6.25;;;;;21.73;49.66;101565.50;4963025;28;47031;-73
2021/06/15 03:03:16;;;;;;;;;8.75;6.00;;;;;21.69;49.34;101562.41;4962697;28;45545;-74
2021/06/15 03:05:42;;;;;;;;;6.50;6.00;;;;;21.67;49.86;101553.69;4966434;28;46025;-73
2021/06/15 03:08:10;;;;;;;;;8.50;7.25;;;;;21.63;50.07;101564.03;4971620;28;45533;-74
2021/06/15 03:10:35;;;;;;;;;7.00;7.00;;;;;21.61;50.27;101559.88;4968745;28;45694;-73
2021/06/15 03:13:15;;;;;;;;;7.50;6.25;;;;;21.57;50.71;101558.63;4984445;28;46145;-74
2021/06/15 03:15:46;;;;;;;;;8.25;8.00;;;;;21.54;51.04;101557.19;4965760;28;45908;-74
2021/06/15 03:18:36;;;;;;;;;7.50;7.50;;;;;21.50;50.87;101553.22;4965988;28;46230;-74
2021/06/15 03:21:05;;;;;;;;;8.00;8.00;;;;;21.44;51.27;101557.56;4966180;28;45479;-73
2021/06/15 03:23:33;;;;;;;;;8.00;7.75;;;;;21.40;51.35;101564.38;4967953;28;47392;-74
2021/06/15 03:26:05;;;;;;;;;10.50;9.00;;;;;21.32;51.57;101550.25;4969699;28;45554;-74
2021/06/15 03:28:32;;;;;;;;;8.75;8.75;;;;;21.27;51.82;101542.78;4967882;28;45869;-74
2021/06/15 03:31:00;;;;;;;;;8.75;7.75;;;;;21.25;51.75;101544.84;4965762;28;45733;-74
2021/06/15 03:33:26;;;;;;;;;7.00;7.00;;;;;21.22;51.50;101543.38;4968634;28;45652;-73
2021/06/15 03:35:55;;;;;;;;;7.00;6.00;;;;;21.20;51.91;101558.88;4965592;28;46443;-73
2021/06/15 03:38:24;;;;;;;;;7.25;7.25;;;;;21.15;51.88;101550.59;4971202;28;45670;-74
2021/06/15 03:40:52;;;;;;;;;8.25;8.25;;;;;21.13;51.76;101563.38;4971502;28;45579;-73
2021/06/15 03:43:20;;;;;;;;;8.00;6.75;;;;;21.09;51.21;101567.47;4962679;28;45568;-73
2021/06/15 03:45:57;;;;;;;;;6.00;6.00;;;;;21.03;51.25;101562.91;4966905;28;46155;-74
2021/06/15 03:48:24;;;;;;;;;8.00;7.00;;;;;21.01;51.70;101567.66;4965591;28;45968;-73
2021/06/15 03:50:56;;;;;;;;;9.00;8.00;;;;;20.98;52.05;101566.19;4969780;28;45505;-74
2021/06/15 03:53:29;;;;;;;;;10.50;10.00;;;;;20.97;51.49;101569.09;4966319;28;45428;-73
2021/06/15 03:55:55;;;;;;;;;9.25;9.00;;;;;20.95;51.94;101565.78;4969309;28;45738;-73
2021/06/15 03:58:22;;;;;;;;;10.25;10.00;;;;;20.93;51.92;101562.44;4968392;28;45377;-73
2021/06/15 04:00:48;;;;;;;;;12.00;9.75;;;;;20.91;51.90;101565.31;4967902;28;45522;-74
2021/06/15 04:03:15;;;;;;;;;10.75;10.25;;;;;20.91;52.00;101562.63;4967917;28;45522;-74
2021/06/15 04:05:42;;;;;;;;;15.75;12.00;;;;;20.91;52.16;101569.88;4964550;28;47154;-73
2021/06/15 04:08:12;;;;;;;;;17.25;12.25;;;;;20.92;51.81;101566.16;4971151;28;45735;-74
2021/06/15 04:10:41;;;;;;;;;12.25;10.50;;;;;20.91;51.73;101568.00;4963857;28;45526;-73
2021/06/15 04:13:08;;;;;;;;;13.75;10.25;;;;;20.91;51.57;101562.63;4964936;28;45589;-74
2021/06/15 04:15:35;;;;;;;;;14.25;10.75;;;;;20.91;51.50;101557.25;4965506;28;46486;-73
2021/06/15 04:18:07;;;;;;;;;12.50;11.75;;;;;20.94;51.47;101566.78;4967123;28;45655;-73
2021/06/15 04:20:39;;;;;;;;;14.25;12.00;;;;;20.96;51.45;101556.69;4967600;28;45853;-74
2021/06/15 04:23:08;;;;;;;;;15.00;13.50;;;;;20.96;51.10;101551.31;4970515;28;45516;-73
2021/06/15 04:25:39;;;;;;;;;15.00;13.25;;;;;20.97;52.13;101567.25;4966988;28;45625;-72
2021/06/15 04:28:05;;;;;;;;;16.00;12.75;;;;;20.98;51.84;101560.00;4967753;28;45665;-74
2021/06/15 04:30:34;;;;;;;;;14.00;12.00;;;;;21.00;51.48;101564.16;4964527;28;45422;-73
2021/06/15 04:33:03;;;;;;;;;14.00;14.00;;;;;21.03;51.96;101562.91;4966465;28;45427;-72
2021/06/15 04:35:37;;;;;;;;;13.75;13.00;;;;;21.06;52.22;101570.56;4968062;28;45605;-72
2021/06/15 04:38:27;;;;;;;;;11.50;11.50;;;;;21.07;51.80;101572.25;4968851;28;45436;-72
2021/06/15 04:41:02;;;;;;;;;13.75;12.50;;;;;21.04;52.14;101569.94;4966927;28;45473;-73
2021/06/15 04:43:34;;;;;;;;;17.25;13.50;;;;;21.04;52.35;101576.16;4978352;28;45614;-73
2021/06/15 04:46:25;;;;;;;;;13.00;11.25;;;;;21.08;51.63;101581.97;4965508;28;45656;-73
2021/06/15 04:48:59;;;;;;;;;11.50;11.00;;;;;21.12;51.47;101582.41;4964527;28;45553;-73
2021/06/15 04:51:25;;;;;;;;;10.75;8.75;;;;;21.17;50.93;101586.16;4967229;28;45467;-73
2021/06/15 04:53:58;;;;;;;;;14.75;12.75;;;;;21.25;50.87;101587.84;4962704;28;45464;-73
2021/06/15 04:56:24;;;;;;;;;11.00;10.25;;;;;21.35;51.04;101587.47;4963222;28;46332;-73
2021/06/15 04:58:52;;;;;;;;;11.75;11.00;;;;;21.40;51.16;101588.56;4986307;28;45558;-75
2021/06/15 05:01:18;;;;;;;;;13.75;9.00;;;;;21.46;50.91;101595.00;4962635;28;45685;-72
2021/06/15 05:03:44;;;;;;;;;12.00;11.00;;;;;21.55;50.55;101604.56;4964801;28;45880;-72
2021/06/15 05:06:10;;;;;;;;;13.00;11.00;;;;;21.62;50.59;101600.03;4967797;28;45653;-72
2021/06/15 05:08:46;;;;;;;;;9.25;9.25;;;;;21.68;50.48;101598.38;4964684;28;45779;-72
2021/06/15 05:11:13;;;;;;;;;12.00;10.75;;;;;21.70;49.85;101601.72;4966584;28;45898;-72
2021/06/15 05:13:40;;;;;;;;;12.00;9.75;;;;;21.73;50.37;101600.47;4960787;28;45635;-72
2021/06/15 05:16:08;;;;;;;;;10.00;9.50;;;;;21.76;50.05;101600.91;4962533;28;45649;-77
2021/06/15 05:18:37;;;;;;;;;12.25;10.25;;;;;21.80;50.31;101606.69;4959752;28;45532;-72
2021/06/15 05:21:09;;;;;;;;;11.25;9.50;;;;;21.86;50.71;101613.97;4961981;28;45575;-72
2021/06/15 05:23:51;;;;;;;;;12.00;9.50;;;;;21.91;50.34;101616.88;4970322;28;45437;-73
2021/06/15 05:26:17;;;;;;;;;11.75;9.50;;;;;21.96;50.34;101614.41;4954314;28;47337;-73
2021/06/15 05:28:43;;;;;;;;;14.75;11.25;;;;;22.03;50.96;101615.25;4959980;28;45559;-72
2021/06/15 05:31:09;;;;;;;;;12.25;10.50;;;;;22.10;49.70;101615.25;4949915;28;51744;-71
2021/06/15 05:33:35;;;;;;;;;10.75;10.00;;;;;22.20;50.67;101615.72;4954861;28;45545;-74
2021/06/15 05:36:00;;;;;;;;;12.00;9.25;;;;;22.32;49.95;101626.72;4962058;28;46640;-74
2021/06/15 05:38:26;;;;;;;;;12.00;11.25;;;;;22.40;50.10;101618.41;4965656;28;45507;-75
2021/06/15 05:40:52;;;;;;;;;12.00;11.25;;;;;22.48;49.69;101622.81;4966695;28;45515;-73
2021/06/15 05:43:18;;;;;;;;;10.00;10.00;;;;;22.58;49.80;101622.41;4958387;28;45528;-76
2021/06/15 05:45:44;;;;;;;;;12.50;11.50;;;;;22.67;50.49;101629.22;4962882;28;48338;-76
2021/06/15 05:48:09;;;;;;;;;12.00;11.75;;;;;22.75;49.68;101637.09;4962956;28;45677;-75
2021/06/15 05:50:35;;;;;;;;;13.25;11.75;;;;;22.84;50.22;101641.22;4964973;28;46322;-74
2021/06/15 05:53:00;;;;;;;;;11.75;10.50;;;;;22.90;50.45;101632.31;4966421;28;45651;-74
2021/06/15 05:55:26;;;;;;;;;12.00;11.25;;;;;23.00;49.83;101628.38;4962897;28;45585;-75
2021/06/15 05:57:51;;;;;;;;;13.75;13.75;;;;;23.08;49.91;101633.56;4963962;28;45642;-75
2021/06/15 06:00:18;;;;;;;;;11.00;11.00;;;;;23.18;49.13;101633.94;4963030;28;49971;-75
2021/06/15 06:02:43;;;;;;;;;11.25;11.00;;;;;23.31;49.02;101635.78;4963754;28;45637;-74
2021/06/15 06:10:25;;;;;;;;;12.75;12.25;;;;;23.51;48.99;101631.13;4962715;28;45751;-73
2021/06/15 06:12:51;;;;;;;;;13.00;12.50;;;;;23.59;48.66;101632.78;4964862;28;45489;-74
2021/06/15 06:15:16;;;;;;;;;16.50;14.25;;;;;23.65;48.44;101631.09;4963551;28;46417;-73
2021/06/15 06:17:43;;;;;;;;;13.00;12.25;;;;;23.69;48.61;101633.16;4966757;28;45436;-72
2021/06/15 06:20:12;;;;;;;;;13.75;11.25;;;;;23.77;48.62;101630.22;4966263;28;45610;-73
2021/06/15 06:22:39;;;;;;;;;15.50;14.00;;;;;23.86;48.26;101625.38;4963962;28;46085;-72
2021/06/15 06:25:08;;;;;;;;;16.75;14.00;;;;;23.97;47.99;101623.88;4961448;28;45580;-72
2021/06/15 06:27:34;;;;;;;;;14.75;14.00;;;;;24.07;47.71;101624.25;4962064;28;45452;-73
2021/06/15 06:29:59;;;;;;;;;14.25;11.50;;;;;24.23;47.85;101623.72;4958374;28;45628;-72
2021/06/15 06:32:24;;;;;;;;;16.00;14.50;;;;;24.33;47.12;101628.66;4967267;28;45494;-74
2021/06/15 06:34:50;;;;;;;;;14.75;14.00;;;;;24.46;47.41;101623.16;4964859;28;46016;-72
2021/06/15 06:37:15;;;;;;;;;14.00;14.00;;;;;24.53;47.31;101631.22;4962654;28;45574;-73
2021/06/15 06:39:42;;;;;;;;;14.50;13.00;;;;;24.60;47.37;101626.56;4966245;28;46153;-73
2021/06/15 06:42:08;;;;;;;;;15.25;14.00;;;;;24.67;46.64;101626.50;4964268;28;45575;-73
2021/06/15 06:44:34;;;;;;;;;17.75;14.50;;;;;24.79;46.65;101626.63;4967104;28;45500;-74
2021/06/15 06:47:00;;;;;;;;;15.50;14.00;;;;;24.87;45.87;101612.81;4968709;28;45509;-73
2021/06/15 06:49:25;;;;;;;;;15.00;13.25;;;;;24.94;46.12;101624.38;4964260;28;45423;-73
2021/06/15 06:51:51;;;;;;;;;16.00;15.00;;;;;25.00;46.46;101623.50;4966701;28;45547;-73
2021/06/15 06:54:16;;;;;;;;;14.50;14.50;;;;;25.13;45.31;101624.41;4965615;28;45494;-74
2021/06/15 06:56:42;;;;;;;;;16.50;13.00;;;;;25.11;45.14;101630.84;4966320;28;45381;-73
2021/06/15 06:59:07;;;;;;;;;14.75;13.25;;;;;25.22;45.62;101625.78;4969660;28;45452;-74
2021/06/15 07:01:33;;;;;;;;;15.00;13.75;;;;;25.34;45.47;101628.56;4962558;28;54604;-72
2021/06/15 07:03:58;;;;;;;;;18.50;15.50;;;;;25.48;46.06;101628.19;4960247;28;46783;-73
2021/06/15 07:06:23;;;;;;;;;14.50;13.00;;;;;25.64;45.62;101628.59;4965643;28;45608;-73
2021/06/15 07:08:49;;;;;;;;;11.75;10.75;;;;;25.73;44.75;101621.81;4967316;28;45452;-73
2021/06/15 07:11:15;;;;;;;;;12.00;11.25;;;;;25.85;44.60;101632.72;4968167;28;45778;-74
2021/06/15 07:13:41;;;;;;;;;18.50;13.25;;;;;25.95;43.91;101625.72;4965615;28;46412;-74
2021/06/15 07:16:06;;;;;;;;;14.50;13.00;;;;;26.07;43.73;101628.47;4963456;28;45460;-74
2021/06/15 07:18:35;;;;;;;;;15.50;13.00;;;;;26.18;43.88;101626.81;4967061;28;45563;-74
2021/06/15 07:21:02;;;;;;;;;16.25;16.25;;;;;26.35;43.81;101627.81;4968036;28;45451;-74
2021/06/15 07:23:27;;;;;;;;;16.00;14.50;;;;;26.53;43.24;101639.66;4967301;28;46485;-74
2021/06/15 07:25:52;;;;;;;;;17.00;15.00;;;;;26.66;43.14;101639.44;4969280;28;45545;-74
2021/06/15 07:28:18;;;;;;;;;16.00;13.00;;;;;26.83;42.79;101628.72;4965684;28;45583;-74
2021/06/15 07:30:43;;;;;;;;;13.75;12.50;;;;;27.03;42.49;101636.50;4966038;28;57350;-74
2021/06/15 07:33:12;;;;;;;;;17.50;15.00;;;;;27.19;42.38;101633.06;4964121;28;45661;-73
2021/06/15 07:35:37;;;;;;;;;17.25;14.50;;;;;27.40;42.26;101631.59;4965494;28;45667;-74
2021/06/15 07:38:03;;;;;;;;;17.25;14.00;;;;;27.68;41.76;101627.28;4965886;28;45506;-74
2021/06/15 07:40:30;;;;;;;;;18.25;16.50;;;;;27.93;41.36;101634.28;4965867;28;45550;-73
2021/06/15 07:42:58;;;;;;;;;18.00;14.75;;;;;28.13;41.03;101631.09;4962489;28;46518;-74
2021/06/15 07:45:28;;;;;;;;;15.50;12.75;;;;;28.43;40.67;101623.44;4961515;28;54101;-74
2021/06/15 07:47:54;;;;;;;;;15.50;14.25;;;;;28.76;39.42;101627.25;4965294;28;46102;-74
2021/06/15 07:50:20;;;;;;;;;15.00;15.00;;;;;29.08;39.40;101621.19;4968566;28;45997;-74
2021/06/15 07:52:46;;;;;;;;;17.25;16.75;;;;;29.41;37.85;101622.16;4966650;28;45728;-74
2021/06/15 07:55:15;;;;;;;;;17.00;16.00;;;;;29.53;37.82;101609.22;4966135;28;45582;-73
2021/06/15 07:57:41;;;;;;;;;17.50;15.50;;;;;29.76;36.44;101613.59;4962463;28;45439;-73
2021/06/15 08:00:09;;;;;;;;;23.75;16.25;;;;;31.12;34.40;101614.09;4964157;28;45528;-74
2021/06/15 08:02:35;;;;;;;;;12.25;12.25;;;;;33.28;32.19;101613.06;4966018;28;46155;-74
2021/06/15 08:05:00;;;;;;;;;19.25;15.25;;;;;35.51;28.34;101615.19;4979668;28;45503;-74
2021/06/15 08:07:26;;;;;;;;;15.00;14.00;;;;;37.10;26.93;101610.59;4965422;28;45534;-75
2021/06/15 08:09:52;;;;;;;;;17.75;17.00;;;;;38.33;26.76;101607.72;4964103;28;54253;-74
2021/06/15 08:12:20;;;;;;;;;18.75;16.75;;;;;39.27;23.03;101608.38;4965960;28;46390;-74
2021/06/15 08:14:45;;;;;;;;;13.00;12.50;;;;;39.58;25.67;101617.69;4965647;28;45614;-74
2021/06/15 08:17:11;;;;;;;;;14.00;13.00;;;;;40.54;23.91;101612.84;4969449;28;45559;-75
2021/06/15 08:19:37;;;;;;;;;17.50;15.00;;;;;41.35;23.15;101611.75;4967721;28;45463;-74
2021/06/15 08:22:03;;;;;;;;;20.00;15.75;;;;;41.98;22.27;101620.03;4965055;28;45551;-74
2021/06/15 08:24:28;;;;;;;;;15.50;14.00;;;;;42.71;22.46;101618.56;4962683;28;45591;-74
2021/06/15 08:26:54;;;;;;;;;13.00;13.00;;;;;43.65;21.47;101620.28;4964789;28;46086;-74
2021/06/15 08:29:19;;;;;;;;;13.25;12.25;;;;;44.13;20.65;101614.81;4966160;28;45629;-74
2021/06/15 08:31:45;;;;;;;;;16.00;14.25;;;;;44.46;19.07;101616.47;4961607;28;51373;-75
2021/06/15 08:34:11;;;;;;;;;15.50;12.50;;;;;44.13;20.05;101618.41;4960313;28;45775;-75
2021/06/15 08:36:37;;;;;;;;;14.50;13.00;;;;;43.45;20.34;101618.44;4961031;28;45536;-75
2021/06/15 08:39:07;;;;;;;;;12.00;11.50;;;;;43.46;20.86;101620.09;4960131;28;45676;-75
2021/06/15 08:41:33;;;;;;;;;13.50;12.75;;;;;44.37;20.30;101616.63;4962074;28;45697;-75
2021/06/15 08:43:59;;;;;;;;;12.50;12.25;;;;;45.16;19.72;101619.31;4964443;28;45696;-75
2021/06/15 08:46:25;;;;;;;;;10.75;10.75;;;;;46.18;18.51;101618.19;4962805;28;45590;-75
2021/06/15 08:48:51;;;;;;;;;15.00;14.00;;;;;47.02;18.60;101616.31;4955976;28;45560;-76
2021/06/15 08:51:16;;;;;;;;;17.25;13.50;;;;;47.38;17.96;101614.81;4961650;28;46559;-78
2021/06/15 08:53:42;;;;;;;;;16.75;14.75;;;;;47.72;17.37;101619.59;4962898;28;45745;-75
2021/06/15 08:56:18;;;;;;;;;14.50;13.25;;;;;48.31;16.31;101617.81;4967461;28;45518;-76
2021/06/15 08:59:20;;;;;;;;;14.25;11.75;;;;;48.77;15.60;101624.94;4959619;28;45540;-75
2021/06/15 09:01:48;;;;;;;;;13.75;11.50;;;;;48.88;15.51;101626.59;4921825;28;46283;-74
2021/06/15 09:04:13;;;;;;;;;17.75;14.50;;;;;48.79;14.82;101612.16;4922653;28;45463;-75
2021/06/15 09:06:38;;;;;;;;;11.50;10.75;;;;;48.22;15.48;101617.31;4925181;28;45892;-74
2021/06/15 09:09:05;;;;;;;;;13.00;13.00;;;;;48.18;15.94;101624.88;4922880;28;45573;-74
2021/06/15 09:11:47;;;;;;;;;14.25;11.75;;;;;48.29;14.17;101614.56;4924365;28;46295;-74
2021/06/15 09:14:13;;;;;;;;;13.75;11.50;;;;;48.39;15.45;101619.44;4924439;28;46666;-74
2021/06/15 09:16:45;;;;;;;;;14.25;11.25;;;;;48.24;14.55;101615.72;4923554;28;45558;-73
2021/06/15 09:19:19;;;;;;;;;10.25;9.75;;;;;47.83;15.06;101614.13;4920945;28;45622;-75
2021/06/15 09:21:46;;;;;;;;;9.75;9.75;;;;;47.85;15.60;101606.94;4922951;28;45762;-74
2021/06/15 09:24:14;;;;;;;;;13.75;11.75;;;;;47.83;15.62;101614.97;4921665;28;45593;-75
2021/06/15 09:27:05;;;;;;;;;11.25;11.25;;;;;47.34;15.12;101615.97;4923171;28;45437;-74
2021/06/15 09:29:37;;;;;;;;;10.00;10.00;;;;;46.64;15.47;101609.78;4922339;28;45498;-75
2021/06/15 09:32:05;;;;;;;;;8.25;8.25;;;;;45.65;16.32;101618.78;4926474;28;46135;-75
2021/06/15 09:34:31;;;;;;;;;9.25;9.25;;;;;45.14;16.68;101612.50;4922775;28;45597;-75
2021/06/15 09:36:56;;;;;;;;;10.75;10.75;;;;;44.97;17.02;101617.31;4960246;28;45604;-75
2021/06/15 09:39:22;;;;;;;;;12.00;12.00;;;;;44.60;17.20;101606.47;4960478;28;45544;-74
2021/06/15 09:41:49;;;;;;;;;7.25;7.25;;;;;44.14;17.22;101602.50;4962719;28;45772;-74
2021/06/15 09:44:20;;;;;;;;;10.25;10.25;;;;;43.74;18.91;101607.00;4966594;28;45727;-74
2021/06/15 09:46:48;;;;;;;;;15.00;12.75;;;;;43.72;18.26;101601.00;4959270;28;45567;-74
2021/06/15 09:49:38;;;;;;;;;12.00;10.25;;;;;43.71;18.07;101602.13;4960499;28;45472;-74
2021/06/15 09:52:20;;;;;;;;;10.50;10.50;;;;;43.49;18.86;101606.25;4961793;28;45579;-75
2021/06/15 09:54:48;;;;;;;;;15.25;12.75;;;;;43.19;18.87;101607.75;4959476;28;51113;-74
2021/06/15 09:57:21;;;;;;;;;13.75;10.50;;;;;42.97;18.53;101606.28;4965486;28;45445;-88
2021/06/15 10:00:08;;;;;;;;;13.00;11.50;;;;;42.74;18.55;101601.97;4961162;28;45402;-78
2021/06/15 10:02:35;;;;;;;;;10.50;10.25;;;;;42.52;19.09;101606.03;4963024;28;46484;-75
2021/06/15 10:05:29;;;;;;;;;11.00;10.75;;;;;42.74;19.38;101610.31;4965431;28;45984;-74
2021/06/15 10:08:10;;;;;;;;;13.00;10.75;;;;;42.87;19.57;101613.13;4964267;28;45723;-74
2021/06/15 10:10:38;;;;;;;;;9.00;9.00;;;;;43.02;19.16;101617.94;4959569;28;46109;-74
2021/06/15 10:13:04;;;;;;;;;11.75;10.75;;;;;42.91;17.69;101606.50;4955113;28;45623;-72
2021/06/15 10:15:31;;;;;;;;;10.00;9.75;;;;;42.64;18.96;101607.19;4960975;28;57488;-73
2021/06/15 10:17:58;;;;;;;;;14.25;10.00;;;;;42.70;19.00;101601.03;4959659;28;45581;-74
2021/06/15 10:20:26;;;;;;;;;10.50;9.75;;;;;42.83;19.09;101607.47;4963176;28;46003;-73
2021/06/15 10:22:54;;;;;;;;;9.00;8.75;;;;;42.97;18.79;101606.28;4960951;28;45448;-75
2021/06/15 10:25:23;;;;;;;;;11.00;9.75;;;;;43.23;18.38;101603.09;4958489;28;46252;-71
2021/06/15 10:27:50;;;;;;;;;10.00;8.25;;;;;43.27;18.46;101598.47;4959878;28;45500;-73
2021/06/15 10:30:17;;;;;;;;;8.50;8.50;;;;;42.99;17.57;101598.41;4965567;28;45635;-73
2021/06/15 10:33:14;;;;;;;;;10.00;9.75;;;;;42.35;19.00;101597.91;4963080;28;46494;-72
2021/06/15 10:35:47;;;;;;;;;11.25;9.50;;;;;42.43;19.07;101597.00;4939173;28;49286;-75
2021/06/15 10:38:44;;;;;;;;;8.25;8.25;;;;;42.32;19.18;101587.47;4941206;28;45829;-72
2021/06/15 10:41:23;;;;;;;;;9.50;7.25;;;;;42.59;18.33;101591.56;4939162;28;45879;-73
2021/06/15 10:43:53;;;;;;;;;10.75;9.25;;;;;42.99;18.89;101587.28;4937905;28;46731;-71
2021/06/15 10:46:19;;;;;;;;;13.00;10.75;;;;;43.48;17.75;101587.97;4941385;28;45449;-72
2021/06/15 10:48:46;;;;;;;;;9.00;9.00;;;;;43.64;18.56;101596.38;4937948;28;45546;-72
2021/06/15 10:51:22;;;;;;;;;7.25;7.25;;;;;43.62;15.88;101587.56;4938354;28;45607;-72
2021/06/15 10:53:48;;;;;;;;;11.25;9.00;;;;;42.95;17.18;101587.97;4936715;28;45665;-73
2021/06/15 10:56:16;;;;;;;;;13.25;10.50;;;;;42.71;17.11;101585.22;4943085;28;45759;-72
2021/06/15 10:58:48;;;;;;;;;9.75;8.50;;;;;42.51;17.97;101584.97;4942162;28;45567;-72
2021/06/15 11:01:20;;;;;;;;;8.25;8.25;;;;;42.99;18.75;101587.28;4936857;28;45645;-74
2021/06/15 11:04:03;;;;;;;;;8.25;8.25;;;;;43.43;18.01;101579.06;4939787;28;46194;-73
2021/06/15 11:06:28;;;;;;;;;9.75;8.00;;;;;43.77;17.22;101574.84;4937881;28;45839;-75
2021/06/15 11:09:16;;;;;;;;;7.25;7.25;;;;;44.23;17.74;101578.88;4939336;28;45539;-74
2021/06/15 11:11:50;;;;;;;;;10.75;8.75;;;;;44.63;17.66;101579.84;4930573;28;45839;-74
2021/06/15 11:14:21;;;;;;;;;9.25;9.25;;;;;44.68;14.30;101575.97;4964939;28;45535;-74
2021/06/15 11:16:50;;;;;;;;;9.75;8.00;;;;;44.08;16.68;101576.91;4961731;28;45919;-75
2021/06/15 11:19:17;;;;;;;;;9.00;8.75;;;;;44.12;16.80;101572.25;4951169;28;57038;-74
2021/06/15 11:21:57;;;;;;;;;8.25;8.25;;;;;44.45;17.81;101567.50;4959415;28;45537;-73
2021/06/15 11:24:51;;;;;;;;;10.50;9.75;;;;;44.85;17.17;101564.47;4956125;28;46378;-73
2021/06/15 11:27:37;;;;;;;;;8.50;8.00;;;;;45.00;16.60;101566.38;4963080;28;58465;-73
2021/06/15 11:30:11;;;;;;;;;12.25;10.00;;;;;45.16;16.69;101565.53;4960958;28;45859;-74
2021/06/15 11:32:37;;;;;;;;;10.25;8.25;;;;;45.33;16.72;101556.75;4963313;28;45686;-74
2021/06/15 11:35:03;;;;;;;;;11.25;9.75;;;;;45.42;17.17;101564.88;4964973;28;45499;-74